Time;durP1;ratioP1;P1;durP2;ratioP2;P2;SDS_P1;SDS_P2;PMS_P1;PMS_P2;Temp;Humidity;BMP_temperature;BMP_pressure;BME280_temperature;BME280_humidity;BME280_pressure;Samples;Min_cycle;Max_cycle;Signal;HPM_P1;HPM_P2
2021/08/07 00:01:58;;;;;;;3.85;0.90;;;16.20;99.90;;;;;;5038093;28;20446;-85
2021/08/07 00:04:26;;;;;;;3.05;1.20;;;16.20;99.90;;;;;;5038034;28;20025;-85
2021/08/07 00:06:52;;;;;;;3.25;1.25;;;16.30;99.90;;;;;;5037948;28;20025;-84
2021/08/07 00:09:18;;;;;;;4.10;1.40;;;16.40;99.90;;;;;;5037827;28;20385;-84
2021/08/07 00:11:43;;;;;;;8.85;1.40;;;16.30;99.90;;;;;;5055704;28;20040;-84
2021/08/07 00:14:09;;;;;;;2.92;1.10;;;16.10;99.90;;;;;;5037716;28;20033;-84
2021/08/07 00:16:35;;;;;;;2.13;1.13;;;16.20;99.90;;;;;;5037672;28;20018;-84
2021/08/07 00:19:01;;;;;;;2.20;1.15;;;15.90;99.90;;;;;;5037759;28;20032;-84
2021/08/07 00:21:26;;;;;;;3.05;1.10;;;15.80;99.90;;;;;;5055770;28;20021;-85
2021/08/07 00:23:52;;;;;;;1.92;0.98;;;15.80;99.90;;;;;;5037607;28;20463;-85
2021/08/07 00:26:18;;;;;;;4.53;1.10;;;15.90;99.90;;;;;;5037598;28;20032;-84
2021/08/07 00:28:43;;;;;;;4.10;1.30;;;15.90;99.90;;;;;;5037422;28;20064;-84
2021/08/07 00:31:09;;;;;;;6.78;1.30;;;16.00;99.90;;;;;;5055326;28;20020;-84
2021/08/07 00:33:35;;;;;;;4.22;1.20;;;15.90;99.90;;;;;;5037405;28;20028;-84
2021/08/07 00:36:00;;;;;;;3.45;1.10;;;15.80;99.90;;;;;;5055260;28;20028;-84
2021/08/07 00:38:26;;;;;;;7.43;1.38;;;15.70;99.90;;;;;;5037226;28;20021;-84
2021/08/07 00:40:52;;;;;;;3.92;1.25;;;16.10;99.90;;;;;;5037119;28;20047;-84
2021/08/07 00:43:18;;;;;;;4.03;1.25;;;16.20;99.90;;;;;;5037268;28;20033;-84
2021/08/07 00:45:43;;;;;;;3.13;1.00;;;15.90;99.90;;;;;;5055045;28;20074;-84
2021/08/07 00:48:10;;;;;;;2.72;0.90;;;16.00;99.90;;;;;;5037209;28;20020;-85
2021/08/07 00:50:37;;;;;;;5.35;1.30;;;16.00;99.90;;;;;;5037113;28;20029;-84
2021/08/07 00:53:04;;;;;;;9.02;1.48;;;16.20;99.90;;;;;;5036967;28;20056;-85
2021/08/07 00:55:30;;;;;;;4.15;0.90;;;16.20;99.90;;;;;;5036104;28;20017;-84
2021/08/07 00:57:55;;;;;;;3.25;1.00;;;16.20;99.90;;;;;;5037377;28;20029;-84
2021/08/07 01:00:21;;;;;;;2.70;1.17;;;16.20;99.90;;;;;;5037007;28;20021;-85
2021/08/07 01:03:14;;;;;;;3.92;1.20;;;16.20;99.90;;;;;;5036805;28;20396;-85
2021/08/07 01:05:50;;;;;;;5.90;1.20;;;16.20;99.90;;;;;;4997024;28;20043;-84
2021/08/07 01:08:21;;;;;;;8.05;1.20;;;16.00;99.90;;;;;;5036807;28;20531;-85
2021/08/07 01:11:05;;;;;;;5.50;1.35;;;15.90;99.90;;;;;;5036674;28;20044;-85
2021/08/07 01:13:47;;;;;;;3.42;1.05;;;15.90;99.90;;;;;;5054477;28;20021;-84
2021/08/07 01:16:21;;;;;;;3.95;1.27;;;16.00;99.90;;;;;;5036604;28;20043;-84
2021/08/07 01:18:48;;;;;;;2.08;1.30;;;15.90;99.90;;;;;;5036612;28;20028;-85
2021/08/07 01:21:18;;;;;;;4.90;1.30;;;15.90;99.90;;;;;;5036438;28;20485;-84
2021/08/07 01:24:11;;;;;;;3.53;1.00;;;16.10;99.90;;;;;;5036444;28;20388;-85
2021/08/07 01:26:56;;;;;;;6.47;1.20;;;16.00;99.90;;;;;;5054562;28;20017;-84
2021/08/07 01:29:24;;;;;;;3.67;1.13;;;16.30;99.90;;;;;;5054249;28;20107;-84
2021/08/07 01:31:52;;;;;;;5.32;1.23;;;16.40;99.90;;;;;;5036222;28;20488;-84
2021/08/07 01:34:18;;;;;;;11.88;1.20;;;16.40;99.90;;;;;;5036169;28;20029;-85
2021/08/07 01:36:45;;;;;;;7.65;1.30;;;16.20;99.90;;;;;;5036162;28;20017;-85
2021/08/07 01:39:11;;;;;;;8.85;1.40;;;16.20;99.90;;;;;;5049012;28;20442;-85
2021/08/07 01:41:37;;;;;;;3.30;1.20;;;16.00;99.90;;;;;;5034298;28;20056;-85
2021/08/07 01:44:03;;;;;;;3.67;1.02;;;16.00;99.90;;;;;;5016338;28;20443;-85
2021/08/07 01:46:50;;;;;;;4.55;1.15;;;15.90;99.90;;;;;;5016265;28;20048;-85
2021/08/07 01:49:24;;;;;;;2.58;0.98;;;15.80;99.90;;;;;;5016231;28;20034;-85
2021/08/07 01:51:57;;;;;;;2.00;0.90;;;15.90;99.90;;;;;;5016196;28;20116;-84
2021/08/07 01:54:34;;;;;;;5.57;1.10;;;16.10;99.90;;;;;;5016053;28;20037;-85
2021/08/07 01:57:06;;;;;;;3.25;1.10;;;16.30;99.90;;;;;;5016151;28;20508;-85
2021/08/07 01:59:34;;;;;;;3.88;1.20;;;16.30;99.90;;;;;;5016109;28;20022;-85
2021/08/07 02:02:01;;;;;;;2.88;0.90;;;16.20;99.90;;;;;;5016007;28;20026;-84
2021/08/07 02:04:28;;;;;;;1.90;0.85;;;16.20;99.90;;;;;;5015985;28;20033;-85
2021/08/07 02:06:57;;;;;;;1.83;0.93;;;16.20;99.90;;;;;;5015583;28;20171;-85
2021/08/07 02:09:23;;;;;;;3.53;1.02;;;16.10;99.90;;;;;;5015896;28;20507;-85
2021/08/07 02:11:49;;;;;;;5.45;1.58;;;16.20;99.90;;;;;;5015793;28;20068;-84
2021/08/07 02:14:16;;;;;;;3.15;1.23;;;16.30;99.90;;;;;;5015781;28;20485;-85
2021/08/07 02:16:43;;;;;;;4.47;1.42;;;16.20;99.90;;;;;;5015757;28;20025;-84
2021/08/07 02:19:10;;;;;;;2.10;1.02;;;16.00;99.90;;;;;;5015713;28;20068;-85
2021/08/07 02:21:37;;;;;;;13.10;1.50;;;16.00;99.90;;;;;;5015676;28;20022;-84
2021/08/07 02:24:04;;;;;;;4.85;1.00;;;16.00;99.90;;;;;;5015671;28;20551;-85
2021/08/07 02:26:30;;;;;;;1.73;1.05;;;15.90;99.90;;;;;;5015710;28;20022;-85
2021/08/07 02:28:56;;;;;;;5.45;1.20;;;15.90;99.90;;;;;;5015643;28;20029;-85
2021/08/07 02:31:23;;;;;;;3.83;1.30;;;16.00;99.90;;;;;;5015580;28;20079;-84
2021/08/07 02:33:50;;;;;;;3.80;1.25;;;16.00;99.90;;;;;;5033213;28;20505;-85
2021/08/07 02:36:16;;;;;;;2.88;1.00;;;16.20;99.90;;;;;;5015516;28;20021;-84
2021/08/07 02:38:42;;;;;;;2.72;0.90;;;16.30;99.90;;;;;;5015353;28;20108;-84
2021/08/07 02:41:09;;;;;;;5.03;1.55;;;16.20;99.90;;;;;;5033547;28;20025;-85
2021/08/07 02:43:36;;;;;;;4.35;1.15;;;16.10;99.90;;;;;;5015545;28;20029;-84
2021/08/07 02:46:02;;;;;;;6.88;1.25;;;16.00;99.90;;;;;;5015492;28;20037;-85
2021/08/07 02:48:29;;;;;;;1.52;0.77;;;15.90;99.90;;;;;;5016257;28;20025;-84
2021/08/07 02:50:56;;;;;;;8.43;1.20;;;15.80;99.90;;;;;;5033174;28;20087;-84
2021/08/07 02:53:23;;;;;;;2.35;1.20;;;15.80;99.90;;;;;;5015341;28;20486;-85
2021/08/07 02:55:49;;;;;;;5.63;1.02;;;15.90;99.90;;;;;;5015433;28;20025;-84
2021/08/07 02:58:15;;;;;;;3.33;1.20;;;15.90;99.90;;;;;;5015625;28;20033;-85
2021/08/07 03:00:40;;;;;;;5.63;1.20;;;15.70;99.90;;;;;;5015247;28;20026;-84
2021/08/07 03:03:06;;;;;;;6.53;1.15;;;15.70;99.90;;;;;;5015347;28;20111;-85
2021/08/07 03:05:32;;;;;;;4.70;1.15;;;15.70;99.90;;;;;;5015303;28;20057;-85
2021/08/07 03:07:57;;;;;;;10.55;1.73;;;15.60;99.90;;;;;;5015900;28;20025;-84
2021/08/07 03:10:25;;;;;;;1.98;0.98;;;15.60;99.90;;;;;;5016072;28;20032;-84
2021/08/07 03:12:52;;;;;;;3.97;1.20;;;15.70;99.90;;;;;;5015549;28;20392;-84
2021/08/07 03:15:21;;;;;;;2.80;1.10;;;15.90;99.90;;;;;;5015529;28;20100;-85
2021/08/07 03:17:47;;;;;;;3.55;1.17;;;16.00;99.90;;;;;;5032978;28;20424;-84
2021/08/07 03:20:13;;;;;;;2.90;1.25;;;15.80;99.90;;;;;;5018467;28;20022;-85
2021/08/07 03:22:39;;;;;;;3.22;1.15;;;15.80;99.90;;;;;;5018939;28;20029;-85
2021/08/07 03:25:05;;;;;;;1.63;1.00;;;15.90;99.90;;;;;;5019033;28;20029;-85
2021/08/07 03:27:31;;;;;;;3.33;1.10;;;16.00;99.90;;;;;;5018816;28;20022;-84
2021/08/07 03:29:56;;;;;;;2.00;1.02;;;16.10;99.90;;;;;;5018800;28;20029;-84
2021/08/07 03:32:22;;;;;;;3.70;1.17;;;16.30;99.90;;;;;;5036594;28;20026;-85
2021/08/07 03:34:48;;;;;;;3.42;1.50;;;16.20;99.90;;;;;;5018767;28;20135;-84
2021/08/07 03:37:14;;;;;;;3.47;1.42;;;15.90;99.90;;;;;;5018645;28;20056;-85
2021/08/07 03:39:40;;;;;;;3.97;0.93;;;15.70;99.90;;;;;;5036256;28;20045;-85
2021/08/07 03:42:06;;;;;;;2.75;1.10;;;15.70;99.90;;;;;;5018636;28;20021;-85
2021/08/07 03:44:32;;;;;;;7.30;1.50;;;15.70;99.90;;;;;;5019037;28;20354;-85
2021/08/07 03:46:58;;;;;;;2.63;1.17;;;15.60;99.90;;;;;;5018932;28;20110;-85
2021/08/07 03:49:24;;;;;;;11.45;1.48;;;15.70;99.90;;;;;;5018499;28;20424;-85
2021/08/07 03:51:51;;;;;;;3.05;1.10;;;15.60;99.90;;;;;;5018501;28;20025;-84
2021/08/07 03:54:17;;;;;;;5.07;1.10;;;15.60;99.90;;;;;;5018323;28;20040;-85
2021/08/07 03:56:43;;;;;;;8.88;1.38;;;15.70;99.90;;;;;;5018296;28;20021;-85
2021/08/07 03:59:08;;;;;;;6.95;1.30;;;16.00;99.90;;;;;;5018327;28;20420;-85
2021/08/07 04:01:34;;;;;;;5.00;1.77;;;16.00;99.90;;;;;;5018238;28;20029;-85
2021/08/07 04:04:00;;;;;;;4.50;1.05;;;16.00;99.90;;;;;;5018242;28;20127;-85
2021/08/07 04:06:25;;;;;;;2.92;0.95;;;15.90;99.90;;;;;;5018158;28;20037;-84
2021/08/07 04:08:51;;;;;;;3.63;1.10;;;16.00;99.90;;;;;;5035895;28;20025;-84
2021/08/07 04:11:17;;;;;;;3.30;0.95;;;15.90;99.90;;;;;;5018073;28;20034;-85
2021/08/07 04:13:43;;;;;;;3.58;1.17;;;16.00;99.90;;;;;;5035737;28;20060;-85
2021/08/07 04:16:09;;;;;;;4.55;1.20;;;16.00;99.90;;;;;;5035739;28;20025;-85
2021/08/07 04:18:34;;;;;;;4.93;1.20;;;16.00;99.90;;;;;;5035965;28;20469;-85
2021/08/07 04:21:00;;;;;;;5.03;0.95;;;16.00;99.90;;;;;;5017849;28;20116;-85
2021/08/07 04:23:26;;;;;;;3.90;1.10;;;16.00;99.90;;;;;;5017901;28;20028;-85
2021/08/07 04:25:51;;;;;;;2.78;1.10;;;15.90;99.90;;;;;;5017802;28;20388;-85
2021/08/07 04:28:17;;;;;;;2.65;1.27;;;15.80;99.90;;;;;;5018668;28;20029;-85
2021/08/07 04:30:44;;;;;;;7.20;1.20;;;15.70;99.90;;;;;;5017520;28;20112;-85
2021/08/07 04:33:10;;;;;;;4.97;1.30;;;15.80;99.90;;;;;;5017581;28;20033;-85
2021/08/07 04:35:36;;;;;;;5.65;1.38;;;15.70;99.90;;;;;;5017593;28;20544;-85
2021/08/07 04:38:02;;;;;;;5.30;1.30;;;15.60;99.90;;;;;;5017509;28;20026;-85
2021/08/07 04:40:30;;;;;;;3.35;1.27;;;15.50;99.90;;;;;;5032568;28;20055;-86
2021/08/07 04:42:56;;;;;;;8.88;1.23;;;15.40;99.90;;;;;;5037303;28;20039;-85
2021/08/07 04:45:22;;;;;;;3.72;1.00;;;15.40;99.90;;;;;;5037132;28;20075;-85
2021/08/07 04:47:52;;;;;;;2.35;0.93;;;15.40;99.90;;;;;;5055083;28;20025;-85
2021/08/07 04:50:18;;;;;;;3.45;1.20;;;15.50;99.90;;;;;;5037061;28;20024;-84
2021/08/07 04:52:43;;;;;;;4.70;1.20;;;15.80;99.90;;;;;;5036998;28;20116;-84
2021/08/07 04:55:09;;;;;;;1.58;0.90;;;16.00;99.90;;;;;;5037969;28;20480;-85
2021/08/07 04:57:35;;;;;;;3.15;1.00;;;16.10;99.90;;;;;;5036999;28;20396;-85
2021/08/07 05:00:01;;;;;;;5.80;1.20;;;16.20;99.90;;;;;;5037424;28;20389;-84
2021/08/07 05:02:26;;;;;;;6.13;1.45;;;16.20;99.90;;;;;;5037083;28;20045;-85
2021/08/07 05:04:52;;;;;;;4.43;1.00;;;16.30;99.90;;;;;;5037234;28;20048;-85
2021/08/07 05:07:17;;;;;;;4.47;1.05;;;16.30;99.90;;;;;;5037294;28;20362;-85
2021/08/07 05:09:43;;;;;;;6.30;1.45;;;16.40;99.90;;;;;;5037194;28;20020;-84
2021/08/07 05:12:09;;;;;;;8.02;1.25;;;16.40;99.90;;;;;;5054921;28;20025;-85
2021/08/07 05:14:35;;;;;;;2.78;1.13;;;16.30;99.90;;;;;;5037232;28;20064;-85
2021/08/07 05:17:00;;;;;;;7.32;1.38;;;16.20;99.90;;;;;;5037227;28;20488;-85
2021/08/07 05:19:26;;;;;;;4.57;1.30;;;16.20;99.90;;;;;;5037722;28;20033;-85
2021/08/07 05:21:52;;;;;;;9.10;1.30;;;16.10;99.90;;;;;;5056548;28;20097;-85
2021/08/07 05:24:17;;;;;;;8.40;1.30;;;15.80;99.90;;;;;;5038373;28;20025;-85
2021/08/07 05:26:43;;;;;;;5.85;1.30;;;15.90;99.90;;;;;;5056265;28;20036;-86
2021/08/07 05:29:08;;;;;;;4.43;1.02;;;16.30;99.90;;;;;;5036888;28;20029;-85
2021/08/07 05:31:34;;;;;;;5.47;1.48;;;16.40;99.90;;;;;;5055146;28;20021;-86
2021/08/07 05:34:00;;;;;;;2.65;1.20;;;16.30;99.90;;;;;;5054884;28;20096;-85
2021/08/07 05:36:25;;;;;;;4.15;1.20;;;16.30;99.90;;;;;;5036730;28;20477;-85
2021/08/07 05:38:51;;;;;;;7.22;1.00;;;16.50;99.90;;;;;;5052250;28;20419;-85
2021/08/07 05:41:17;;;;;;;2.35;0.93;;;16.70;99.90;;;;;;5016310;28;20075;-85
2021/08/07 05:43:42;;;;;;;5.28;1.42;;;17.00;99.90;;;;;;5016952;28;20477;-85
2021/08/07 05:46:08;;;;;;;3.95;1.17;;;17.20;99.90;;;;;;5017027;28;20026;-85
2021/08/07 05:48:34;;;;;;;1.95;0.85;;;17.20;99.90;;;;;;5016814;28;20057;-86
2021/08/07 05:51:00;;;;;;;2.42;1.00;;;17.30;99.90;;;;;;5016679;28;20484;-85
2021/08/07 05:53:26;;;;;;;3.55;1.15;;;17.20;99.90;;;;;;5016653;28;20033;-85
2021/08/07 05:55:55;;;;;;;4.30;1.20;;;17.30;99.90;;;;;;5016581;28;20021;-86
2021/08/07 05:58:22;;;;;;;1.52;0.77;;;17.20;99.90;;;;;;5016538;28;20070;-86
2021/08/07 06:00:48;;;;;;;3.42;1.20;;;17.30;99.90;;;;;;5016311;28;20432;-85
2021/08/07 06:03:14;;;;;;;5.25;1.27;;;17.60;99.90;;;;;;5016471;28;20055;-86
2021/08/07 06:05:39;;;;;;;3.70;1.17;;;17.90;99.90;;;;;;5016378;28;20025;-85
2021/08/07 06:08:05;;;;;;;3.28;0.80;;;17.90;99.90;;;;;;5016361;28;20030;-85
2021/08/07 06:10:31;;;;;;;5.35;1.00;;;18.00;99.90;;;;;;5016441;28;20048;-86
2021/08/07 06:12:56;;;;;;;3.55;1.05;;;18.00;99.90;;;;;;5016357;28;20025;-85
2021/08/07 06:15:23;;;;;;;7.05;1.38;;;18.00;99.90;;;;;;5016269;28;20017;-85
2021/08/07 06:17:48;;;;;;;3.25;1.08;;;18.00;99.90;;;;;;5016149;28;20556;-84
2021/08/07 06:20:15;;;;;;;3.03;1.20;;;18.00;99.90;;;;;;5016966;28;20052;-85
2021/08/07 06:22:40;;;;;;;5.70;1.30;;;18.00;99.90;;;;;;5016208;28;20403;-85
2021/08/07 06:25:07;;;;;;;3.40;1.00;;;18.00;99.90;;;;;;5016192;28;20025;-85
2021/08/07 06:27:33;;;;;;;5.57;1.40;;;18.10;99.90;;;;;;5033841;28;20075;-86
2021/08/07 06:30:00;;;;;;;2.55;0.88;;;18.20;99.90;;;;;;5016091;28;20025;-85
2021/08/07 06:32:26;;;;;;;6.80;1.10;;;18.40;99.90;;;;;;5015972;28;20031;-85
2021/08/07 06:34:51;;;;;;;3.17;1.05;;;18.50;99.90;;;;;;5033655;28;20022;-85
2021/08/07 06:37:17;;;;;;;6.20;1.20;;;18.50;99.90;;;;;;5015943;28;20022;-85
2021/08/07 06:39:43;;;;;;;3.20;1.10;;;18.50;99.90;;;;;;5033521;28;20041;-85
2021/08/07 06:42:09;;;;;;;4.30;1.13;;;18.50;99.90;;;;;;5033719;28;20381;-86
2021/08/07 06:44:35;;;;;;;4.53;1.17;;;18.60;99.90;;;;;;5016030;28;20029;-85
2021/08/07 06:47:01;;;;;;;4.43;1.10;;;18.60;99.90;;;;;;5015874;28;20496;-85
2021/08/07 06:49:26;;;;;;;5.70;1.45;;;18.50;99.90;;;;;;5015962;28;20362;-85
2021/08/07 06:51:52;;;;;;;4.18;1.25;;;18.50;99.90;;;;;;5016204;28;20022;-85
2021/08/07 06:54:18;;;;;;;4.38;1.30;;;18.50;99.90;;;;;;5019690;28;20030;-85
2021/08/07 06:56:48;;;;;;;4.15;1.33;;;18.50;99.90;;;;;;5020004;28;20043;-85
2021/08/07 06:59:14;;;;;;;2.42;1.40;;;18.70;99.90;;;;;;5020306;28;20026;-85
2021/08/07 07:01:40;;;;;;;3.35;1.20;;;18.70;99.90;;;;;;5019862;28;20022;-85
2021/08/07 07:04:05;;;;;;;3.88;1.02;;;18.90;99.90;;;;;;5019843;28;20087;-86
2021/08/07 07:06:31;;;;;;;6.65;1.02;;;19.20;99.90;;;;;;5019706;28;20404;-85
2021/08/07 07:08:57;;;;;;;3.55;1.30;;;19.30;99.90;;;;;;5019879;28;20073;-87
2021/08/07 07:11:22;;;;;;;5.05;1.08;;;19.20;99.90;;;;;;5019920;28;20068;-86
2021/08/07 07:13:48;;;;;;;3.25;0.82;;;19.10;99.90;;;;;;5019422;28;20029;-87
2021/08/07 07:16:14;;;;;;;5.22;1.10;;;19.00;99.90;;;;;;5019901;28;20033;-84
2021/08/07 07:18:40;;;;;;;4.35;1.23;;;18.90;99.90;;;;;;5019706;28;20477;-86
2021/08/07 07:21:06;;;;;;;4.72;1.02;;;18.90;99.90;;;;;;5019888;28;20021;-87
2021/08/07 07:23:32;;;;;;;3.53;1.27;;;18.80;99.90;;;;;;5037212;28;20030;-87
2021/08/07 07:25:57;;;;;;;6.25;1.00;;;18.80;99.90;;;;;;5019373;28;20033;-86
2021/08/07 07:28:23;;;;;;;3.67;1.30;;;18.80;99.90;;;;;;5019176;28;20060;-85
2021/08/07 07:30:49;;;;;;;3.28;1.00;;;18.80;99.90;;;;;;5019513;28;20032;-86
2021/08/07 07:33:15;;;;;;;4.65;1.13;;;19.00;99.90;;;;;;5021716;28;20025;-86
2021/08/07 07:35:41;;;;;;;4.90;1.27;;;19.20;99.90;;;;;;5022343;28;20021;-86
2021/08/07 07:38:07;;;;;;;2.58;0.85;;;19.20;99.90;;;;;;5020933;28;20029;-88
2021/08/07 07:40:34;;;;;;;8.70;1.13;;;19.30;99.90;;;;;;5035527;28;20067;-86
2021/08/07 07:42:59;;;;;;;2.70;0.82;;;19.30;99.90;;;;;;5039057;28;20021;-85
2021/08/07 07:45:25;;;;;;;5.38;0.90;;;19.30;99.90;;;;;;5038669;28;20028;-86
2021/08/07 07:47:51;;;;;;;4.25;1.20;;;19.40;99.90;;;;;;5038464;28;20499;-86
2021/08/07 07:50:17;;;;;;;3.47;1.15;;;19.50;99.90;;;;;;5038964;28;20103;-85
2021/08/07 07:52:44;;;;;;;4.35;1.38;;;19.60;99.90;;;;;;5038642;28;20058;-86
2021/08/07 07:55:11;;;;;;;5.05;0.80;;;19.70;99.90;;;;;;5038616;28;20109;-86
2021/08/07 07:57:36;;;;;;;2.67;0.90;;;19.80;99.90;;;;;;5038577;28;20048;-86
2021/08/07 08:00:04;;;;;;;3.72;1.20;;;19.80;99.90;;;;;;5038716;28;20551;-86
2021/08/07 08:02:30;;;;;;;3.88;0.77;;;19.90;99.90;;;;;;5056222;28;20082;-85
2021/08/07 08:04:56;;;;;;;5.68;1.60;;;19.80;99.90;;;;;;5055975;28;20025;-86
2021/08/07 08:07:22;;;;;;;2.05;1.10;;;19.60;99.90;;;;;;5038637;28;20083;-86
2021/08/07 08:09:47;;;;;;;4.82;1.33;;;19.50;99.90;;;;;;5038560;28;20067;-86
2021/08/07 08:12:13;;;;;;;2.75;1.20;;;19.60;99.90;;;;;;5038404;28;20388;-86
2021/08/07 08:14:39;;;;;;;3.50;1.23;;;19.60;99.90;;;;;;5055971;28;20075;-86
2021/08/07 08:17:05;;;;;;;5.25;1.50;;;19.80;99.90;;;;;;5056649;28;20021;-85
2021/08/07 08:19:30;;;;;;;5.85;1.52;;;19.70;99.90;;;;;;5038327;28;20048;-85
2021/08/07 08:21:56;;;;;;;4.43;1.13;;;19.70;99.90;;;;;;5038217;28;20028;-86
2021/08/07 08:24:22;;;;;;;3.80;1.20;;;19.80;99.90;;;;;;5038189;28;20086;-86
2021/08/07 08:26:48;;;;;;;2.65;1.17;;;19.80;99.90;;;;;;5056020;28;20032;-85
2021/08/07 08:29:13;;;;;;;6.15;1.40;;;19.80;99.90;;;;;;5037958;28;20025;-85
2021/08/07 08:31:39;;;;;;;3.42;1.23;;;19.70;99.90;;;;;;5055963;28;20463;-85
2021/08/07 08:34:05;;;;;;;3.58;1.38;;;19.70;99.90;;;;;;5037733;28;20021;-86
2021/08/07 08:36:31;;;;;;;6.35;1.10;;;19.60;99.90;;;;;;5037900;28;20048;-86
2021/08/07 08:38:57;;;;;;;5.57;1.33;;;19.50;99.90;;;;;;5034666;28;20045;-85
2021/08/07 08:41:23;;;;;;;6.13;1.23;;;19.50;99.90;;;;;;5035769;28;20028;-85
2021/08/07 08:43:51;;;;;;;5.65;1.02;;;19.50;99.90;;;;;;5035728;28;20029;-85
2021/08/07 08:46:19;;;;;;;2.72;1.17;;;19.50;99.90;;;;;;5017759;28;20034;-86
2021/08/07 08:48:45;;;;;;;7.53;1.10;;;19.50;99.90;;;;;;5017750;28;20025;-86
2021/08/07 08:51:12;;;;;;;8.48;1.48;;;19.50;99.90;;;;;;5017611;28;20032;-86
2021/08/07 08:53:39;;;;;;;4.28;1.35;;;19.50;99.90;;;;;;5017630;28;20029;-86
2021/08/07 08:56:06;;;;;;;3.75;1.10;;;19.50;99.90;;;;;;5017755;28;20508;-86
2021/08/07 08:58:36;;;;;;;3.88;1.10;;;19.30;99.90;;;;;;5017558;28;20029;-85
2021/08/07 09:01:07;;;;;;;2.65;1.00;;;19.30;99.90;;;;;;5017760;28;20599;-85
2021/08/07 09:03:33;;;;;;;4.80;1.30;;;19.20;99.90;;;;;;5017567;28;20111;-87
2021/08/07 09:05:59;;;;;;;4.82;1.08;;;19.30;99.90;;;;;;5017742;28;20114;-85
2021/08/07 09:08:24;;;;;;;4.57;1.23;;;19.30;99.90;;;;;;5017378;28;20029;-82
2021/08/07 09:11:19;;;;;;;4.20;1.30;;;19.40;99.90;;;;;;5001100;28;20030;-86
2021/08/07 09:13:46;;;;;;;5.20;1.23;;;19.40;99.90;;;;;;5035688;28;20032;-87
2021/08/07 09:16:14;;;;;;;3.75;1.25;;;19.30;99.90;;;;;;5016762;28;20029;-85
2021/08/07 09:18:40;;;;;;;2.20;1.10;;;19.30;99.90;;;;;;5017552;28;20069;-85
2021/08/07 09:21:15;;;;;;;2.60;1.00;;;19.30;99.90;;;;;;5017415;28;20022;-87
2021/08/07 09:23:42;;;;;;;4.40;1.20;;;19.40;99.90;;;;;;5017793;28;20025;-86
2021/08/07 09:26:23;;;;;;;18.67;1.88;;;19.30;99.90;;;;;;5017185;28;20099;-85
2021/08/07 09:28:51;;;;;;;5.32;1.10;;;19.20;99.90;;;;;;5035158;28;20025;-86
2021/08/07 09:31:18;;;;;;;10.45;1.65;;;19.20;99.90;;;;;;5035323;28;20099;-86
2021/08/07 09:33:43;;;;;;;2.47;1.13;;;19.30;99.90;;;;;;5035027;28;20496;-86
2021/08/07 09:36:09;;;;;;;6.32;1.35;;;19.30;99.90;;;;;;5016969;28;20021;-86
2021/08/07 09:38:44;;;;;;;6.13;1.35;;;19.30;99.90;;;;;;5017125;28;20108;-86
2021/08/07 09:41:10;;;;;;;7.22;1.55;;;19.20;99.90;;;;;;5033411;28;20037;-86
2021/08/07 09:43:41;;;;;;;3.95;1.38;;;19.20;99.90;;;;;;5033441;28;20433;-86
2021/08/07 09:46:22;;;;;;;4.72;1.55;;;19.20;99.90;;;;;;5034677;28;20120;-86
2021/08/07 09:48:50;;;;;;;3.38;1.30;;;19.20;99.90;;;;;;5038969;28;20025;-86
2021/08/07 09:51:21;;;;;;;10.98;1.20;;;19.10;99.90;;;;;;5035698;28;20049;-87
2021/08/07 09:54:11;;;;;;;5.53;1.25;;;18.90;99.90;;;;;;5034734;28;20025;-86
2021/08/07 09:56:57;;;;;;;4.93;1.40;;;18.80;99.90;;;;;;5033332;28;20481;-85
2021/08/07 09:59:26;;;;;;;4.35;1.58;;;18.80;99.90;;;;;;5033120;28;20017;-85
2021/08/07 10:01:53;;;;;;;4.68;1.58;;;18.60;99.90;;;;;;5034369;28;20354;-85
2021/08/07 10:04:20;;;;;;;6.15;1.88;;;18.40;99.90;;;;;;5032924;28;20021;-86
2021/08/07 10:06:47;;;;;;;6.30;1.67;;;18.20;99.90;;;;;;5016724;28;20030;-84
2021/08/07 10:09:14;;;;;;;3.75;1.67;;;18.10;99.90;;;;;;5034195;28;20481;-84
2021/08/07 10:12:01;;;;;;;4.53;1.85;;;18.00;99.90;;;;;;5032807;28;20029;-85
2021/08/07 10:14:26;;;;;;;5.85;1.85;;;18.10;99.90;;;;;;5032752;28;20049;-85
2021/08/07 10:16:52;;;;;;;8.70;1.75;;;18.10;99.90;;;;;;5032739;28;20076;-86
2021/08/07 10:19:20;;;;;;;12.52;2.25;;;18.00;99.90;;;;;;5032786;28;20465;-86
2021/08/07 10:21:49;;;;;;;3.88;1.50;;;17.90;99.90;;;;;;5033782;28;20056;-86
2021/08/07 10:24:16;;;;;;;6.22;1.75;;;17.80;99.90;;;;;;5034098;28;20436;-86
2021/08/07 10:26:45;;;;;;;5.18;1.75;;;17.90;99.90;;;;;;5032849;28;20469;-87
2021/08/07 10:29:13;;;;;;;6.10;1.70;;;17.80;99.90;;;;;;5032645;28;20033;-87
2021/08/07 10:31:39;;;;;;;3.22;1.52;;;17.80;99.90;;;;;;5034475;28;20041;-87
2021/08/07 10:34:08;;;;;;;4.57;1.60;;;17.80;99.90;;;;;;5032807;28;20026;-87
2021/08/07 10:36:35;;;;;;;3.83;1.60;;;17.80;99.90;;;;;;5033622;28;20056;-87
2021/08/07 10:39:05;;;;;;;6.28;1.58;;;17.80;99.90;;;;;;5033156;28;20045;-89
2021/08/07 10:41:31;;;;;;;4.63;1.73;;;17.80;99.90;;;;;;5034835;28;20021;-87
2021/08/07 10:43:59;;;;;;;4.78;1.73;;;17.70;99.90;;;;;;5016920;28;20029;-88
2021/08/07 10:46:25;;;;;;;4.40;1.45;;;17.80;99.90;;;;;;5017576;28;20032;-87
2021/08/07 10:48:51;;;;;;;6.80;1.77;;;17.80;99.90;;;;;;5016446;28;20060;-87
2021/08/07 10:51:23;;;;;;;6.38;1.52;;;17.80;99.90;;;;;;5016500;28;20378;-87
2021/08/07 10:54:00;;;;;;;4.65;1.75;;;17.70;99.90;;;;;;5016155;28;20029;-88
2021/08/07 10:56:33;;;;;;;7.13;1.83;;;17.60;99.90;;;;;;5016316;28;20508;-89
2021/08/07 10:59:11;;;;;;;7.13;1.83;;;17.70;99.90;;;;;;5016214;28;20481;-87
2021/08/07 11:01:39;;;;;;;5.57;1.45;;;17.50;99.90;;;;;;5015356;28;20264;-87
2021/08/07 11:04:16;;;;;;;4.70;1.85;;;17.60;99.90;;;;;;5015291;28;20033;-87
2021/08/07 11:06:45;;;;;;;4.75;1.80;;;17.70;99.90;;;;;;5015355;28;20026;-88
2021/08/07 11:09:29;;;;;;;3.53;1.40;;;17.80;99.90;;;;;;5015302;28;20029;-89
2021/08/07 11:12:07;;;;;;;9.23;1.80;;;17.80;99.90;;;;;;5033284;28;20021;-87
2021/08/07 11:14:35;;;;;;;6.32;1.90;;;17.90;99.90;;;;;;5015170;28;20037;-88
2021/08/07 11:17:04;;;;;;;9.55;2.25;;;17.80;99.90;;;;;;5015292;28;20056;-88
2021/08/07 11:19:48;;;;;;;5.07;1.73;;;17.60;99.90;;;;;;5015170;28;20048;-88
2021/08/07 11:22:18;;;;;;;5.25;1.80;;;17.60;99.90;;;;;;5015228;28;20052;-90
2021/08/07 11:24:43;;;;;;;5.78;2.15;;;17.60;99.90;;;;;;5015904;28;20041;-89
2021/08/07 11:27:10;;;;;;;7.47;1.83;;;17.70;99.90;;;;;;5015439;28;20030;-89
2021/08/07 11:30:13;;;;;;;8.93;2.38;;;17.80;99.90;;;;;;5016472;28;20025;-89
2021/08/07 11:32:42;;;;;;;7.20;2.03;;;17.70;99.90;;;;;;5015059;28;20030;-89
2021/08/07 11:35:08;;;;;;;7.38;2.17;;;17.50;99.90;;;;;;5015110;28;20033;-89
2021/08/07 11:37:34;;;;;;;5.63;2.03;;;17.40;99.90;;;;;;5015459;28;21559;-89
2021/08/07 11:40:08;;;;;;;8.10;2.22;;;17.30;99.90;;;;;;5027883;28;20137;-88
2021/08/07 11:42:38;;;;;;;;;;;17.40;99.90;;;;;;5038855;28;20496;-89
2021/08/07 11:45:05;;;;;;;4.30;1.67;;;17.50;99.90;;;;;;5038440;28;19911;-89
2021/08/07 11:47:32;;;;;;;3.80;1.70;;;17.50;99.90;;;;;;5038414;28;20049;-89
2021/08/07 11:49:58;;;;;;;3.92;1.80;;;17.40;99.90;;;;;;5038432;28;20164;-89
2021/08/07 11:52:30;;;;;;;3.72;1.67;;;17.50;99.90;;;;;;5039106;28;20130;-90
2021/08/07 11:54:56;;;;;;;4.93;1.73;;;17.40;99.90;;;;;;5040016;28;20032;-89
2021/08/07 11:57:26;;;;;;;8.02;1.77;;;17.60;99.90;;;;;;5042000;28;20035;-88
2021/08/07 11:59:52;;;;;;;5.38;1.90;;;17.70;99.90;;;;;;5054120;28;20025;-89
2021/08/07 12:02:18;;;;;;;4.03;1.60;;;17.80;99.90;;;;;;5048360;28;20083;-89
2021/08/07 12:04:44;;;;;;;8.52;2.00;;;17.80;99.90;;;;;;5039569;28;20025;-89
2021/08/07 12:07:13;;;;;;;5.78;1.92;;;18.00;99.90;;;;;;5056844;28;20542;-88
2021/08/07 12:10:09;;;;;;;7.80;2.08;;;18.00;99.90;;;;;;5038254;28;20029;-89
2021/08/07 12:12:44;;;;;;;4.80;2.30;;;17.90;99.90;;;;;;5038333;28;20045;-89
2021/08/07 12:15:10;;;;;;;7.13;1.85;;;18.00;99.90;;;;;;5038216;28;20025;-89
2021/08/07 12:17:44;;;;;;;3.88;1.95;;;17.90;99.90;;;;;;5038218;28;20031;-89
2021/08/07 12:20:10;;;;;;;;;;;17.90;99.90;;;;;;5038525;28;20021;-89
2021/08/07 12:22:56;;;;;;;5.13;2.00;;;17.90;99.90;;;;;;5038612;28;19911;-89
2021/08/07 12:25:22;;;;;;;4.95;1.50;;;17.90;99.90;;;;;;5037981;28;20025;-88
2021/08/07 12:28:16;;;;;;;5.70;1.80;;;17.60;99.90;;;;;;5038863;28;20048;-88
2021/08/07 12:31:02;;;;;;;5.75;1.45;;;17.60;99.90;;;;;;5037966;28;20017;-88
2021/08/07 12:33:46;;;;;;;4.15;1.70;;;17.50;99.90;;;;;;5037852;28;20025;-89
2021/08/07 12:36:22;;;;;;;6.30;1.90;;;17.50;99.90;;;;;;5037609;28;20039;-89
2021/08/07 12:38:49;;;;;;;5.72;1.75;;;17.60;99.90;;;;;;5035808;28;20272;-89
2021/08/07 12:41:22;;;;;;;5.38;2.20;;;17.60;99.90;;;;;;5017752;28;20494;-88
2021/08/07 12:43:49;;;;;;;6.97;1.90;;;17.60;99.90;;;;;;5017763;28;20037;-89
2021/08/07 12:46:21;;;;;;;4.38;1.67;;;17.50;99.90;;;;;;5035410;28;20049;-89
2021/08/07 12:48:52;;;;;;;7.50;1.60;;;17.30;99.90;;;;;;5017626;28;20029;-89
2021/08/07 12:51:26;;;;;;;5.35;1.83;;;17.20;99.90;;;;;;5017582;28;20504;-87
2021/08/07 12:53:53;;;;;;;4.85;1.63;;;17.00;99.90;;;;;;5017369;28;20057;-89